createdAt,value
2024-02-05T00:00:23.361Z,3.90
2024-02-05T00:01:22.186Z,3.95
2024-02-05T00:02:20.013Z,4.00
2024-02-05T00:03:17.463Z,4.10
2024-02-05T00:04:15.856Z,3.80
2024-02-05T00:05:14.366Z,3.90
2024-02-05T00:06:13.275Z,4.20
2024-02-05T00:07:11.455Z,3.70
2024-02-05T00:08:09.797Z,4.43
2024-02-05T00:09:08.886Z,4.00
2024-02-05T00:10:07.252Z,3.97
2024-02-05T00:11:05.027Z,3.60
2024-02-05T00:12:02.454Z,4.10
2024-02-05T00:12:59.907Z,3.90
2024-02-05T00:13:57.329Z,4.43
2024-02-05T00:14:54.825Z,3.87
2024-02-05T00:15:52.331Z,4.07
2024-02-05T00:16:49.804Z,3.95
2024-02-05T00:17:47.270Z,4.00
2024-02-05T00:18:44.977Z,4.18
2024-02-05T00:19:42.673Z,3.75
2024-02-05T00:20:40.151Z,4.05
2024-02-05T00:21:37.797Z,3.90
2024-02-05T00:22:35.213Z,3.92
2024-02-05T00:23:32.954Z,3.83
2024-02-05T00:24:30.114Z,3.55
2024-02-05T00:25:27.676Z,4.10
2024-02-05T00:26:25.303Z,4.53
2024-02-05T00:27:22.703Z,3.85
2024-02-05T00:28:20.377Z,4.62
2024-02-05T00:29:17.607Z,3.95
2024-02-05T00:30:15.239Z,4.35
2024-02-05T00:31:12.648Z,3.80
2024-02-05T00:32:10.727Z,3.90
2024-02-05T00:33:08.022Z,4.00
2024-02-05T00:34:05.414Z,3.97
2024-02-05T00:35:02.969Z,4.00
2024-02-05T00:36:00.693Z,3.75
2024-02-05T00:36:58.142Z,4.00
2024-02-05T00:37:55.960Z,4.15
2024-02-05T00:38:53.493Z,4.03
2024-02-05T00:39:50.835Z,4.55
2024-02-05T00:40:48.855Z,4.30
2024-02-05T00:41:46.009Z,4.20
2024-02-05T00:42:43.557Z,4.25
2024-02-05T00:43:41.276Z,3.90
2024-02-05T00:44:39.349Z,4.32
2024-02-05T00:45:38.131Z,4.82
2024-02-05T00:46:35.735Z,4.28
2024-02-05T00:47:33.398Z,4.22
2024-02-05T00:48:31.028Z,4.20
2024-02-05T00:49:28.270Z,4.00
2024-02-05T00:50:25.634Z,4.25
2024-02-05T00:51:23.188Z,4.28
2024-02-05T00:52:20.656Z,4.18
2024-02-05T00:53:17.814Z,3.90
2024-02-05T00:54:15.257Z,4.20
2024-02-05T00:55:12.756Z,4.10
2024-02-05T00:56:09.895Z,3.90
2024-02-05T00:57:07.167Z,4.10
2024-02-05T00:58:04.883Z,4.28
2024-02-05T00:59:02.444Z,4.45
2024-02-05T00:59:59.813Z,4.05
2024-02-05T01:00:57.179Z,4.12
2024-02-05T01:01:54.912Z,4.00
2024-02-05T01:02:55.265Z,4.15
2024-02-05T01:03:52.910Z,4.28
2024-02-05T01:04:51.062Z,4.25
2024-02-05T01:05:48.540Z,4.15
2024-02-05T01:06:46.047Z,3.90
2024-02-05T01:07:43.768Z,4.03
2024-02-05T01:08:41.110Z,4.03
2024-02-05T01:09:38.407Z,4.10
2024-02-05T01:10:35.685Z,4.30
2024-02-05T01:11:32.934Z,4.32
2024-02-05T01:12:30.286Z,4.00
2024-02-05T01:13:28.495Z,4.40
2024-02-05T01:14:26.515Z,4.30
2024-02-05T01:15:24.757Z,4.18
2024-02-05T01:16:22.961Z,3.87
2024-02-05T01:17:21.158Z,4.28
2024-02-05T01:18:19.699Z,4.22
2024-02-05T01:19:18.329Z,3.90
2024-02-05T01:20:16.239Z,4.07
2024-02-05T01:21:14.332Z,4.10
2024-02-05T01:22:12.980Z,4.22
2024-02-05T01:23:11.746Z,3.95
2024-02-05T01:24:09.965Z,3.90
2024-02-05T01:25:07.908Z,4.60
2024-02-05T01:26:05.860Z,3.65
2024-02-05T01:27:04.086Z,4.15
2024-02-05T01:28:02.457Z,3.80
2024-02-05T01:29:00.597Z,4.12
2024-02-05T01:29:59.036Z,4.15
2024-02-05T01:30:57.084Z,4.15
2024-02-05T01:31:55.369Z,4.20
2024-02-05T01:32:53.788Z,4.00
2024-02-05T01:33:52.062Z,3.80
2024-02-05T01:34:50.824Z,4.03
2024-02-05T01:35:49.753Z,3.67
2024-02-05T01:36:47.956Z,4.20
2024-02-05T01:37:45.903Z,3.80
2024-02-05T01:38:44.032Z,4.03
2024-02-05T01:39:42.452Z,3.67
2024-02-05T01:40:40.917Z,3.72
2024-02-05T01:41:39.039Z,3.87
2024-02-05T01:42:46.222Z,4.10
2024-02-05T01:43:44.555Z,3.95
2024-02-05T01:44:42.703Z,3.90
2024-02-05T01:45:41.547Z,3.72
2024-02-05T01:46:39.983Z,4.20
2024-02-05T01:47:39.698Z,3.87
2024-02-05T01:48:37.750Z,3.72
2024-02-05T01:49:36.223Z,4.15
2024-02-05T01:50:34.701Z,3.83
2024-02-05T01:51:38.365Z,3.87
2024-02-05T01:52:38.646Z,4.32
2024-02-05T01:53:37.726Z,3.70
2024-02-05T01:54:35.848Z,4.10
2024-02-05T01:55:34.303Z,3.53
2024-02-05T01:56:34.479Z,3.90
2024-02-05T01:57:32.639Z,3.80
2024-02-05T01:58:31.837Z,4.03
2024-02-05T01:59:29.983Z,4.20
2024-02-05T02:00:28.816Z,3.80
2024-02-05T02:01:27.180Z,3.95
2024-02-05T02:02:25.704Z,3.67
2024-02-05T02:03:23.793Z,3.80
2024-02-05T02:04:21.875Z,3.70
2024-02-05T02:05:20.588Z,3.70
2024-02-05T02:06:18.968Z,4.00
2024-02-05T02:07:17.384Z,3.90
2024-02-05T02:08:19.282Z,3.87
2024-02-05T02:09:18.182Z,3.95
2024-02-05T02:10:15.836Z,3.80
2024-02-05T02:11:13.653Z,3.90
2024-02-05T02:12:11.873Z,4.15
2024-02-05T02:13:10.274Z,4.25
2024-02-05T02:14:08.305Z,4.50
2024-02-05T02:15:06.757Z,4.10
2024-02-05T02:16:06.986Z,4.25
2024-02-05T02:17:05.556Z,3.87
2024-02-05T02:18:04.816Z,3.92
2024-02-05T02:19:09.629Z,4.35
2024-02-05T02:20:09.239Z,3.92
2024-02-05T02:21:09.825Z,4.12
2024-02-05T02:22:22.147Z,3.92
2024-02-05T02:23:31.745Z,4.18
2024-02-05T02:24:29.574Z,4.20
2024-02-05T02:25:28.452Z,4.07
2024-02-05T02:26:26.613Z,4.18
2024-02-05T02:27:24.454Z,4.50
2024-02-05T02:28:22.680Z,4.32
2024-02-05T02:29:20.333Z,4.37
2024-02-05T02:30:19.977Z,4.30
2024-02-05T02:31:19.599Z,4.32
2024-02-05T02:32:35.786Z,4.50
2024-02-05T02:34:01.068Z,4.47
2024-02-05T02:35:02.722Z,4.80
2024-02-05T02:36:12.904Z,4.78
2024-02-05T02:37:14.041Z,4.55
2024-02-05T02:38:30.146Z,4.55
2024-02-05T02:39:33.314Z,4.85
2024-02-05T02:40:33.026Z,4.70
2024-02-05T02:41:33.871Z,5.20
2024-02-05T02:43:28.973Z,4.90
2024-02-05T02:44:28.783Z,5.20
2024-02-05T02:45:26.547Z,5.25
2024-02-05T02:46:24.940Z,5.50
2024-02-05T02:47:22.386Z,6.12
2024-02-05T02:48:19.964Z,5.03
2024-02-05T02:49:17.522Z,4.93
2024-02-05T02:50:15.653Z,5.60
2024-02-05T02:51:14.659Z,5.15
2024-02-05T02:52:11.925Z,5.35
2024-02-05T02:53:09.339Z,5.50
2024-02-05T02:54:07.055Z,4.90
2024-02-05T02:55:04.871Z,5.25
2024-02-05T02:56:02.242Z,5.47
2024-02-05T02:56:59.481Z,5.47
2024-02-05T02:57:57.032Z,5.35
2024-02-05T02:58:54.575Z,5.53
2024-02-05T02:59:52.543Z,5.68
2024-02-05T03:00:49.939Z,5.60
2024-02-05T03:01:47.457Z,5.40
2024-02-05T03:02:45.308Z,5.97
2024-02-05T03:03:42.869Z,5.50
2024-02-05T03:04:40.239Z,5.57
2024-02-05T03:05:37.879Z,5.20
2024-02-05T03:06:35.519Z,5.15
2024-02-05T03:07:36.487Z,5.43
2024-02-05T03:08:34.556Z,4.93
2024-02-05T03:09:32.458Z,4.93
2024-02-05T03:10:30.575Z,5.50
2024-02-05T03:11:28.482Z,5.22
2024-02-05T03:12:27.001Z,4.80
2024-02-05T03:13:24.845Z,5.03
2024-02-05T03:14:26.736Z,4.82
2024-02-05T03:15:24.530Z,5.00
2024-02-05T03:16:22.678Z,5.47
2024-02-05T03:17:21.093Z,5.15
2024-02-05T03:18:19.017Z,4.70
2024-02-05T03:19:17.802Z,4.93
2024-02-05T03:20:34.732Z,5.05
2024-02-05T03:21:32.434Z,4.40
2024-02-05T03:22:30.515Z,4.85
2024-02-05T03:23:28.292Z,4.72
2024-02-05T03:24:26.542Z,4.80
2024-02-05T03:25:24.390Z,4.50
2024-02-05T03:26:22.273Z,4.30
2024-02-05T03:27:19.928Z,4.30
2024-02-05T03:28:17.946Z,4.50
2024-02-05T03:29:15.655Z,4.30
2024-02-05T03:30:13.460Z,4.15
2024-02-05T03:31:11.250Z,4.28
2024-02-05T03:32:10.224Z,3.87
2024-02-05T03:33:08.388Z,4.37
2024-02-05T03:34:06.175Z,4.20
2024-02-05T03:35:04.201Z,4.15
2024-02-05T03:36:02.285Z,4.00
2024-02-05T03:37:00.235Z,3.97
2024-02-05T03:37:58.715Z,4.10
2024-02-05T03:38:57.193Z,3.80
2024-02-05T03:39:54.936Z,4.07
2024-02-05T03:40:52.992Z,3.90
2024-02-05T03:41:51.342Z,3.97
2024-02-05T03:42:58.502Z,4.20
2024-02-05T03:43:56.314Z,3.75
2024-02-05T03:44:54.140Z,4.95
2024-02-05T03:45:52.339Z,3.85
2024-02-05T03:46:50.235Z,3.85
2024-02-05T03:47:48.238Z,4.18
2024-02-05T03:48:56.732Z,3.50
2024-02-05T03:49:54.839Z,3.67
2024-02-05T03:50:52.285Z,3.75
2024-02-05T03:51:50.132Z,3.92
2024-02-05T03:52:48.198Z,3.95
2024-02-05T03:53:45.681Z,3.53
2024-02-05T03:54:45.475Z,3.80
2024-02-05T03:55:43.150Z,3.95
2024-02-05T03:56:46.638Z,4.37
2024-02-05T03:57:47.034Z,4.22
2024-02-05T03:58:45.157Z,4.40
2024-02-05T03:59:42.880Z,4.10
2024-02-05T04:00:41.019Z,4.15
2024-02-05T04:01:38.908Z,4.20
2024-02-05T04:02:37.622Z,4.12
2024-02-05T04:03:35.291Z,4.10
2024-02-05T04:04:34.017Z,4.20
2024-02-05T04:05:33.239Z,4.75
2024-02-05T04:06:31.566Z,4.30
2024-02-05T04:07:28.913Z,4.30
2024-02-05T04:08:26.500Z,3.83
2024-02-05T04:09:24.233Z,4.15
2024-02-05T04:10:22.567Z,3.92
2024-02-05T04:11:20.193Z,3.60
2024-02-05T04:12:18.203Z,4.00
2024-02-05T04:13:15.957Z,3.90
2024-02-05T04:14:13.999Z,3.70
2024-02-05T04:15:11.759Z,3.90
2024-02-05T04:16:15.205Z,4.32
2024-02-05T04:17:13.355Z,3.60
2024-02-05T04:18:11.650Z,3.62
2024-02-05T04:19:09.820Z,3.80
2024-02-05T04:20:08.516Z,3.78
2024-02-05T04:21:06.766Z,4.05
2024-02-05T04:22:05.179Z,3.80
2024-02-05T04:23:06.703Z,3.72
2024-02-05T04:24:05.354Z,3.47
2024-02-05T04:25:03.150Z,3.80
2024-02-05T04:26:02.059Z,4.00
2024-02-05T04:26:59.905Z,3.33
2024-02-05T04:27:57.959Z,4.15
2024-02-05T04:28:55.567Z,3.72
2024-02-05T04:29:54.232Z,3.90
2024-02-05T04:30:52.080Z,3.97
2024-02-05T04:31:50.868Z,4.10
2024-02-05T04:32:48.266Z,3.90
2024-02-05T04:33:46.451Z,3.70
2024-02-05T04:34:45.050Z,3.95
2024-02-05T04:35:42.752Z,4.10
2024-02-05T04:36:40.613Z,4.30
2024-02-05T04:37:39.898Z,3.75
2024-02-05T04:38:37.654Z,3.70
2024-02-05T04:39:35.617Z,3.75
2024-02-05T04:40:33.635Z,3.90
2024-02-05T04:41:31.385Z,3.97
2024-02-05T04:42:29.690Z,4.00
2024-02-05T04:43:27.349Z,3.83
2024-02-05T04:44:25.020Z,3.62
2024-02-05T04:45:22.935Z,3.70
2024-02-05T04:46:20.725Z,3.78
2024-02-05T04:47:18.658Z,3.83
2024-02-05T04:48:21.587Z,4.00
2024-02-05T04:49:20.223Z,3.85
2024-02-05T04:50:18.369Z,3.90
2024-02-05T04:51:16.173Z,3.92
2024-02-05T04:52:14.047Z,3.72
2024-02-05T04:53:12.181Z,3.55
2024-02-05T04:54:10.293Z,3.70
2024-02-05T04:55:08.715Z,3.72
2024-02-05T04:56:06.172Z,3.87
2024-02-05T04:57:04.282Z,3.62
2024-02-05T04:58:02.090Z,3.62
2024-02-05T04:59:00.243Z,3.80
2024-02-05T04:59:58.283Z,3.40
2024-02-05T05:00:56.246Z,3.60
2024-02-05T05:01:54.374Z,3.67
2024-02-05T05:02:53.079Z,3.35
2024-02-05T05:03:50.988Z,3.50
2024-02-05T05:04:48.649Z,3.80
2024-02-05T05:05:46.076Z,3.70
2024-02-05T05:06:44.949Z,3.70
2024-02-05T05:07:42.345Z,4.15
2024-02-05T05:08:39.597Z,3.42
2024-02-05T05:09:38.074Z,3.55
2024-02-05T05:10:36.914Z,3.50
2024-02-05T05:11:34.175Z,3.28
2024-02-05T05:12:31.552Z,3.08
2024-02-05T05:13:28.907Z,3.58
2024-02-05T05:14:26.432Z,3.55
2024-02-05T05:15:23.694Z,3.20
2024-02-05T05:16:21.163Z,3.10
2024-02-05T05:17:18.633Z,3.17
2024-02-05T05:18:16.438Z,3.05
2024-02-05T05:19:14.014Z,2.90
2024-02-05T05:20:12.825Z,3.00
2024-02-05T05:21:10.065Z,2.80
2024-02-05T05:22:07.415Z,2.80
2024-02-05T05:23:04.801Z,2.85
2024-02-05T05:24:01.926Z,2.95
2024-02-05T05:24:59.664Z,2.85
2024-02-05T05:25:57.481Z,2.90
2024-02-05T05:26:55.199Z,3.70
2024-02-05T05:27:53.765Z,3.67
2024-02-05T05:28:52.625Z,4.18
2024-02-05T05:29:50.886Z,3.70
2024-02-05T05:30:48.819Z,3.50
2024-02-05T05:31:46.592Z,3.12
2024-02-05T05:32:44.408Z,3.53
2024-02-05T05:33:42.344Z,2.87
2024-02-05T05:34:40.049Z,2.62
2024-02-05T05:35:39.462Z,2.75
2024-02-05T05:36:37.272Z,2.60
2024-02-05T05:37:34.813Z,2.47
2024-02-05T05:38:32.134Z,2.50
2024-02-05T05:39:29.404Z,2.42
2024-02-05T05:40:26.792Z,1.92
2024-02-05T05:41:24.212Z,2.65
2024-02-05T05:42:22.332Z,2.28
2024-02-05T05:43:19.755Z,2.25
2024-02-05T05:44:16.882Z,1.73
2024-02-05T05:45:14.387Z,2.15
2024-02-05T05:46:11.482Z,2.50
2024-02-05T05:47:08.569Z,2.08
2024-02-05T05:48:07.509Z,1.98
2024-02-05T05:49:04.936Z,2.42
2024-02-05T05:50:02.658Z,2.05
2024-02-05T05:51:00.015Z,2.37
2024-02-05T05:51:58.255Z,2.22
2024-02-05T05:52:56.151Z,2.42
2024-02-05T05:53:54.156Z,2.20
2024-02-05T05:54:51.801Z,2.17
2024-02-05T05:55:51.003Z,1.92
2024-02-05T05:56:48.533Z,1.80
2024-02-05T05:57:46.794Z,2.40
2024-02-05T05:58:44.116Z,2.10
2024-02-05T05:59:43.093Z,2.05
2024-02-05T06:00:40.595Z,1.83
2024-02-05T06:01:38.053Z,2.12
2024-02-05T06:02:35.805Z,3.25
2024-02-05T06:03:34.162Z,2.30
2024-02-05T06:04:32.641Z,2.28
2024-02-05T06:05:30.384Z,2.28
2024-02-05T06:06:28.834Z,2.60
2024-02-05T06:07:26.269Z,2.17
2024-02-05T06:08:24.176Z,2.00
2024-02-05T06:09:22.660Z,1.80
2024-02-05T06:10:20.460Z,2.40
2024-02-05T06:11:18.544Z,2.35
2024-02-05T06:12:17.235Z,2.25
2024-02-05T06:13:15.300Z,1.92
2024-02-05T06:14:13.431Z,1.98
2024-02-05T06:15:11.310Z,2.45
2024-02-05T06:16:12.574Z,2.40
2024-02-05T06:17:10.119Z,2.00
2024-02-05T06:18:09.019Z,2.45
2024-02-05T06:19:07.402Z,1.75
2024-02-05T06:20:07.535Z,2.20
2024-02-05T06:21:08.133Z,2.25
2024-02-05T06:22:05.405Z,2.22
2024-02-05T06:23:02.843Z,1.77
2024-02-05T06:24:00.362Z,2.12
2024-02-05T06:24:57.692Z,2.40
2024-02-05T06:25:54.921Z,2.20
2024-02-05T06:26:52.083Z,2.28
2024-02-05T06:27:49.579Z,1.87
2024-02-05T06:28:47.334Z,1.73
2024-02-05T06:29:45.253Z,2.20
2024-02-05T06:30:47.344Z,2.60
2024-02-05T06:31:44.550Z,1.95
2024-02-05T06:32:42.270Z,2.15
2024-02-05T06:33:39.932Z,2.83
2024-02-05T06:34:37.437Z,2.30
2024-02-05T06:35:34.662Z,2.20
2024-02-05T06:36:31.875Z,2.55
2024-02-05T06:37:29.093Z,2.17
2024-02-05T06:38:26.261Z,2.15
2024-02-05T06:39:23.662Z,1.73
2024-02-05T06:40:23.820Z,2.10
2024-02-05T06:41:21.405Z,2.30
2024-02-05T06:42:18.742Z,2.45
2024-02-05T06:43:16.082Z,2.40
2024-02-05T06:44:13.312Z,2.30
2024-02-05T06:45:11.730Z,1.85
2024-02-05T06:46:09.147Z,3.00
2024-02-05T06:47:06.642Z,2.33
2024-02-05T06:48:04.618Z,2.12
2024-02-05T06:49:02.228Z,1.75
2024-02-05T06:50:00.157Z,2.03
2024-02-05T06:50:57.885Z,1.62
2024-02-05T06:51:55.926Z,2.25
2024-02-05T06:52:54.456Z,2.53
2024-02-05T06:53:52.014Z,2.12
2024-02-05T06:54:50.753Z,2.28
2024-02-05T06:55:48.314Z,2.53
2024-02-05T06:56:48.338Z,2.60
2024-02-05T06:57:46.681Z,2.78
2024-02-05T06:58:44.128Z,1.60
2024-02-05T06:59:41.295Z,2.50
2024-02-05T07:00:38.550Z,2.20
2024-02-05T07:01:36.026Z,2.12
2024-02-05T07:02:33.524Z,1.87
2024-02-05T07:03:30.686Z,2.35
2024-02-05T07:04:28.232Z,2.40
2024-02-05T07:05:25.619Z,2.47
2024-02-05T07:06:23.118Z,2.20
2024-02-05T07:07:20.504Z,1.85
2024-02-05T07:08:18.190Z,1.90
2024-02-05T07:09:15.357Z,2.03
2024-02-05T07:10:12.655Z,2.10
2024-02-05T07:11:10.008Z,1.62
2024-02-05T07:12:08.671Z,2.10
2024-02-05T07:13:06.229Z,1.92
2024-02-05T07:14:03.325Z,2.22
2024-02-05T07:15:00.905Z,1.80
2024-02-05T07:15:58.019Z,1.60
2024-02-05T07:16:55.474Z,2.17
2024-02-05T07:17:53.652Z,1.83
2024-02-05T07:18:51.092Z,2.00
2024-02-05T07:19:48.595Z,2.22
2024-02-05T07:20:45.921Z,1.90
2024-02-05T07:21:43.357Z,2.33
2024-02-05T07:22:40.716Z,2.30
2024-02-05T07:23:38.086Z,2.15
2024-02-05T07:24:35.577Z,2.37
2024-02-05T07:25:33.159Z,1.83
2024-02-05T07:26:35.360Z,1.60
2024-02-05T07:27:33.092Z,2.10
2024-02-05T07:28:30.389Z,1.65
2024-02-05T07:29:27.616Z,2.12
2024-02-05T07:30:24.880Z,1.70
2024-02-05T07:31:22.152Z,1.85
2024-02-05T07:32:19.811Z,1.52
2024-02-05T07:33:17.080Z,1.90
2024-02-05T07:34:14.762Z,2.00
2024-02-05T07:35:12.435Z,1.60
2024-02-05T07:36:10.779Z,1.67
2024-02-05T07:37:08.074Z,2.08
2024-02-05T07:38:05.601Z,1.42
2024-02-05T07:39:07.697Z,1.83
2024-02-05T07:40:06.038Z,1.45
2024-02-05T07:41:03.319Z,1.60
2024-02-05T07:42:01.144Z,1.85
2024-02-05T07:42:58.491Z,1.83
2024-02-05T07:43:55.800Z,1.50
2024-02-05T07:44:53.258Z,1.37
2024-02-05T07:45:50.687Z,1.65
2024-02-05T07:46:48.070Z,1.90
2024-02-05T07:47:45.321Z,1.62
2024-02-05T07:48:42.669Z,1.80
2024-02-05T07:49:42.348Z,1.45
2024-02-05T07:50:39.597Z,1.95
2024-02-05T07:51:47.919Z,1.55
2024-02-05T07:52:45.548Z,2.10
2024-02-05T07:53:42.805Z,1.90
2024-02-05T07:54:39.998Z,1.60
2024-02-05T07:55:37.465Z,2.08
2024-02-05T07:56:34.708Z,2.00
2024-02-05T07:57:31.732Z,2.50
2024-02-05T07:58:29.026Z,1.58
2024-02-05T07:59:26.325Z,2.10
2024-02-05T08:00:23.820Z,1.92
2024-02-05T08:01:21.152Z,1.90
2024-02-05T08:02:18.369Z,1.70
2024-02-05T08:03:15.891Z,2.22
2024-02-05T08:04:13.144Z,1.83
2024-02-05T08:05:11.264Z,1.98
2024-02-05T08:06:09.438Z,1.70
2024-02-05T08:07:08.707Z,1.70
2024-02-05T08:08:06.297Z,2.10
2024-02-05T08:09:05.930Z,1.92
2024-02-05T08:10:03.182Z,2.28
2024-02-05T08:11:00.589Z,1.90
2024-02-05T08:11:57.784Z,1.35
2024-02-05T08:12:55.152Z,1.60
2024-02-05T08:13:53.883Z,1.55
2024-02-05T08:14:51.126Z,2.10
2024-02-05T08:15:48.635Z,1.60
2024-02-05T08:16:46.012Z,1.98
2024-02-05T08:17:43.127Z,1.15
2024-02-05T08:18:40.495Z,1.80
2024-02-05T08:19:37.870Z,1.87
2024-02-05T08:20:35.159Z,1.90
2024-02-05T08:21:32.529Z,1.98
2024-02-05T08:22:32.513Z,1.70
2024-02-05T08:23:29.847Z,1.80
2024-02-05T08:24:27.238Z,1.40
2024-02-05T08:25:25.499Z,1.80
2024-02-05T08:26:22.689Z,1.75
2024-02-05T08:27:19.927Z,1.67
2024-02-05T08:28:17.250Z,1.58
2024-02-05T08:29:14.461Z,1.65
2024-02-05T08:30:12.407Z,1.80
2024-02-05T08:31:09.779Z,1.80
2024-02-05T08:32:07.743Z,1.58
2024-02-05T08:33:05.837Z,1.37
2024-02-05T08:34:04.458Z,1.80
2024-02-05T08:35:02.741Z,1.70
2024-02-05T08:36:00.570Z,1.37
2024-02-05T08:36:58.442Z,1.58
2024-02-05T08:37:56.263Z,1.45
2024-02-05T08:38:54.336Z,1.35
2024-02-05T08:39:52.084Z,1.80
2024-02-05T08:40:49.893Z,1.23
2024-02-05T08:41:47.210Z,1.55
2024-02-05T08:42:44.786Z,1.83
2024-02-05T08:43:42.571Z,1.45
2024-02-05T08:44:40.301Z,1.40
2024-02-05T08:45:38.240Z,1.42
2024-02-05T08:46:35.866Z,1.30
2024-02-05T08:47:34.274Z,1.83
2024-02-05T08:48:33.435Z,1.42
2024-02-05T08:49:31.108Z,1.37
2024-02-05T08:50:35.944Z,1.42
2024-02-05T08:51:35.617Z,1.30
2024-02-05T08:52:33.415Z,1.50
2024-02-05T08:53:31.223Z,1.25
2024-02-05T08:54:29.148Z,1.35
2024-02-05T08:55:26.899Z,1.27
2024-02-05T08:56:24.520Z,0.95
2024-02-05T08:57:21.885Z,1.08
2024-02-05T08:58:19.659Z,1.30
2024-02-05T08:59:17.233Z,1.62
2024-02-05T09:00:15.705Z,1.00
2024-02-05T09:01:13.187Z,1.30
2024-02-05T09:02:11.371Z,1.40
2024-02-05T09:03:12.006Z,1.48
2024-02-05T09:04:10.468Z,1.12
2024-02-05T09:05:09.045Z,1.25
2024-02-05T09:06:06.672Z,1.60
2024-02-05T09:07:04.715Z,1.45
2024-02-05T09:08:02.585Z,1.70
2024-02-05T09:09:00.932Z,1.45
2024-02-05T09:09:58.632Z,0.98
2024-02-05T09:10:56.154Z,1.23
2024-02-05T09:12:01.620Z,1.17
2024-02-05T09:13:04.316Z,1.20
2024-02-05T09:14:02.595Z,1.12
2024-02-05T09:15:00.572Z,1.60
2024-02-05T09:15:58.398Z,1.67
2024-02-05T09:16:56.890Z,1.27
2024-02-05T09:17:54.454Z,1.40
2024-02-05T09:18:52.412Z,1.55
2024-02-05T09:19:50.620Z,1.37
2024-02-05T09:20:48.351Z,1.67
2024-02-05T09:21:46.050Z,1.48
2024-02-05T09:22:49.833Z,1.48
2024-02-05T09:23:47.593Z,1.70
2024-02-05T09:24:46.018Z,1.50
2024-02-05T09:25:43.851Z,1.25
2024-02-05T09:26:42.033Z,1.08
2024-02-05T09:27:39.653Z,1.15
2024-02-05T09:28:38.633Z,1.45
2024-02-05T09:29:36.608Z,1.30
2024-02-05T09:30:34.272Z,1.42
2024-02-05T09:31:32.334Z,1.42
2024-02-05T09:32:30.202Z,1.62
2024-02-05T09:33:27.686Z,1.25
2024-02-05T09:34:25.562Z,1.40
2024-02-05T09:35:23.505Z,1.40
2024-02-05T09:36:21.573Z,1.70
2024-02-05T09:37:19.647Z,1.50
2024-02-05T09:38:16.863Z,1.10
2024-02-05T09:39:14.076Z,1.60
2024-02-05T09:40:11.609Z,1.40
2024-02-05T09:41:11.498Z,1.92
2024-02-05T09:42:12.761Z,2.47
2024-02-05T09:43:10.246Z,1.67
2024-02-05T09:44:07.952Z,1.30
2024-02-05T09:45:06.496Z,1.52
2024-02-05T09:46:09.916Z,1.58
2024-02-05T09:47:14.159Z,1.60
2024-02-05T09:48:16.586Z,1.73
2024-02-05T09:49:22.586Z,1.58
2024-02-05T09:50:19.966Z,1.42
2024-02-05T09:51:18.733Z,1.33
2024-02-05T09:52:19.382Z,1.27
2024-02-05T09:54:22.283Z,0.90
2024-02-05T09:55:21.362Z,1.20
2024-02-05T09:56:19.529Z,1.17
2024-02-05T09:57:18.666Z,1.62
2024-02-05T09:58:17.125Z,1.10
2024-02-05T09:59:14.414Z,1.30
2024-02-05T10:00:12.591Z,1.37
2024-02-05T10:01:12.182Z,0.90
2024-02-05T10:02:13.732Z,1.10
2024-02-05T10:03:15.864Z,1.12
2024-02-05T10:04:15.464Z,1.67
2024-02-05T10:05:17.842Z,1.67
2024-02-05T10:06:19.850Z,1.10
2024-02-05T10:07:19.259Z,1.62
2024-02-05T10:08:17.540Z,0.90
2024-02-05T10:09:15.295Z,1.05
2024-02-05T10:10:13.400Z,1.17
2024-02-05T10:11:12.125Z,1.00
2024-02-05T10:12:13.467Z,0.98
2024-02-05T10:13:11.186Z,0.90
2024-02-05T10:14:08.540Z,1.12
2024-02-05T10:15:09.763Z,1.10
2024-02-05T10:16:07.141Z,1.00
2024-02-05T10:17:06.042Z,1.33
2024-02-05T10:18:04.072Z,1.50
2024-02-05T10:19:01.445Z,1.30
2024-02-05T10:20:01.170Z,1.23
2024-02-05T10:20:58.612Z,1.02
2024-02-05T10:21:57.844Z,1.50
2024-02-05T10:22:55.199Z,1.58
2024-02-05T10:23:54.232Z,1.25
2024-02-05T10:24:51.679Z,1.00
2024-02-05T10:25:48.841Z,1.02
2024-02-05T10:26:46.098Z,0.90
2024-02-05T10:27:43.920Z,1.30
2024-02-05T10:28:41.411Z,1.20
2024-02-05T10:29:40.672Z,0.93
2024-02-05T10:30:37.847Z,1.67
2024-02-05T10:31:35.343Z,1.27
2024-02-05T10:32:34.753Z,1.23
2024-02-05T10:33:32.282Z,1.20
2024-02-05T10:34:29.975Z,0.90
2024-02-05T10:35:28.460Z,1.37
2024-02-05T10:36:25.991Z,1.15
2024-02-05T10:37:24.255Z,1.37
2024-02-05T10:38:25.094Z,1.00
2024-02-05T10:40:23.223Z,1.25
2024-02-05T10:41:23.389Z,1.10
2024-02-05T10:42:22.582Z,1.12
2024-02-05T10:43:20.194Z,0.82
2024-02-05T10:44:29.767Z,0.75
2024-02-05T10:45:41.620Z,0.98
2024-02-05T10:46:43.082Z,1.48
2024-02-05T10:47:40.349Z,1.37
2024-02-05T10:48:38.900Z,1.05
2024-02-05T10:49:39.944Z,1.75
2024-02-05T10:50:37.752Z,0.98
2024-02-05T10:51:39.213Z,1.12
2024-02-05T10:52:39.393Z,1.30
2024-02-05T10:53:42.263Z,0.93
2024-02-05T10:54:43.208Z,1.08
2024-02-05T10:55:43.478Z,1.10
2024-02-05T10:56:44.475Z,1.30
2024-02-05T10:58:46.218Z,1.05
2024-02-05T10:59:46.192Z,1.35
2024-02-05T11:00:47.008Z,1.42
2024-02-05T11:01:47.804Z,1.30
2024-02-05T11:03:49.381Z,1.23
2024-02-05T11:04:48.598Z,1.30
2024-02-05T11:05:53.236Z,1.80
2024-02-05T11:06:54.273Z,1.60
2024-02-05T11:07:57.200Z,1.60
2024-02-05T11:08:54.832Z,1.80
2024-02-05T11:09:52.635Z,1.58
2024-02-05T11:10:52.984Z,0.82
2024-02-05T11:11:51.550Z,1.58
2024-02-05T11:12:50.795Z,1.30
2024-02-05T11:13:57.535Z,1.73
2024-02-05T11:14:58.112Z,1.55
2024-02-05T11:15:59.452Z,1.50
2024-02-05T11:16:58.719Z,1.55
2024-02-05T11:17:58.424Z,1.83
2024-02-05T11:18:57.306Z,1.60
2024-02-05T11:19:56.001Z,1.37
2024-02-05T11:20:54.829Z,1.75
2024-02-05T11:21:56.449Z,1.95
2024-02-05T11:22:57.175Z,1.98
2024-02-05T11:23:55.709Z,1.77
2024-02-05T11:24:53.084Z,1.15
2024-02-05T11:25:51.695Z,1.40
2024-02-05T11:26:52.224Z,1.37
2024-02-05T11:27:49.639Z,2.15
2024-02-05T11:28:55.178Z,1.70
2024-02-05T11:29:53.301Z,1.60
2024-02-05T11:30:50.629Z,1.73
2024-02-05T11:31:47.832Z,1.55
2024-02-05T11:32:45.042Z,1.85
2024-02-05T11:33:43.349Z,1.87
2024-02-05T11:34:44.434Z,2.00
2024-02-05T11:35:50.785Z,1.50
2024-02-05T11:36:48.498Z,1.70
2024-02-05T11:37:46.082Z,1.83
2024-02-05T11:38:43.641Z,1.73
2024-02-05T11:39:47.438Z,2.00
2024-02-05T11:40:44.704Z,1.87
2024-02-05T11:41:42.055Z,1.70
2024-02-05T11:42:39.246Z,1.75
2024-02-05T11:43:36.616Z,1.80
2024-02-05T11:44:34.158Z,1.42
2024-02-05T11:45:34.360Z,1.87
2024-02-05T11:46:31.823Z,1.80
2024-02-05T11:47:29.292Z,2.25
2024-02-05T11:48:26.620Z,1.75
2024-02-05T11:49:37.927Z,1.70
2024-02-05T11:50:35.746Z,1.40
2024-02-05T11:51:33.351Z,1.50
2024-02-05T11:52:35.583Z,1.60
2024-02-05T11:53:32.815Z,1.73
2024-02-05T11:54:31.562Z,1.92
2024-02-05T11:55:29.386Z,1.80
2024-02-05T11:56:26.833Z,2.05
2024-02-05T11:57:25.563Z,1.80
2024-02-05T11:58:22.753Z,1.67
2024-02-05T11:59:20.265Z,1.55
2024-02-05T12:00:18.165Z,1.92
2024-02-05T12:01:16.882Z,2.20
2024-02-05T12:02:14.707Z,2.60
2024-02-05T12:03:14.071Z,1.67
2024-02-05T12:04:11.908Z,2.08
2024-02-05T12:05:09.408Z,1.90
2024-02-05T12:06:07.078Z,2.03
2024-02-05T12:07:04.770Z,2.05
2024-02-05T12:08:02.700Z,1.60
2024-02-05T12:09:01.373Z,1.70
2024-02-05T12:09:58.732Z,1.75
2024-02-05T12:10:56.129Z,1.52
2024-02-05T12:11:53.557Z,1.83
2024-02-05T12:12:50.999Z,1.92
2024-02-05T12:13:57.749Z,2.05
2024-02-05T12:14:56.588Z,2.58
2024-02-05T12:15:54.199Z,1.95
2024-02-05T12:16:51.628Z,1.95
2024-02-05T12:17:49.786Z,1.73
2024-02-05T12:19:00.444Z,1.77
2024-02-05T12:20:07.823Z,2.10
2024-02-05T12:21:12.829Z,2.03
2024-02-05T12:22:10.981Z,1.80
2024-02-05T12:23:08.440Z,2.62
2024-02-05T12:24:08.980Z,2.30
2024-02-05T12:26:04.568Z,2.00
2024-02-05T12:27:02.374Z,1.52
2024-02-05T12:28:00.425Z,2.22
2024-02-05T12:28:58.635Z,1.83
2024-02-05T12:30:09.390Z,2.45
2024-02-05T12:32:06.595Z,2.17
2024-02-05T12:33:04.532Z,2.28
2024-02-05T12:34:03.017Z,2.60
2024-02-05T12:35:01.017Z,1.77
2024-02-05T12:36:02.004Z,2.10
2024-02-05T12:37:00.697Z,2.12
2024-02-05T12:37:59.259Z,1.80
2024-02-05T12:38:58.220Z,2.25
2024-02-05T12:39:57.220Z,2.03
2024-02-05T12:40:56.396Z,1.70
2024-02-05T12:41:54.568Z,2.28
2024-02-05T12:42:53.462Z,2.28
2024-02-05T12:43:51.426Z,2.35
2024-02-05T12:45:00.902Z,2.67
2024-02-05T12:46:06.424Z,2.20
2024-02-05T12:47:03.945Z,2.35
2024-02-05T12:48:02.965Z,2.33
2024-02-05T12:49:01.153Z,2.25
2024-02-05T12:50:00.966Z,2.30
2024-02-05T12:50:58.538Z,2.80
2024-02-05T12:51:55.969Z,2.05
2024-02-05T12:52:53.174Z,1.95
2024-02-05T12:53:51.866Z,2.37
2024-02-05T12:54:50.544Z,2.30
2024-02-05T12:55:49.412Z,2.50
2024-02-05T12:56:46.732Z,1.70
2024-02-05T12:57:44.017Z,2.28
2024-02-05T12:58:42.057Z,2.90
2024-02-05T12:59:40.136Z,2.33
2024-02-05T13:00:37.806Z,2.47
2024-02-05T13:01:35.491Z,2.70
2024-02-05T13:02:33.759Z,2.40
2024-02-05T13:03:34.935Z,2.28
2024-02-05T13:04:32.381Z,2.58
2024-02-05T13:05:30.475Z,2.37
2024-02-05T13:06:27.853Z,2.03
2024-02-05T13:07:28.110Z,2.92